Time;durP1;ratioP1;P1;durP2;ratioP2;P2;SDS_P1;SDS_P2;PMS_P1;PMS_P2;Temp;Humidity;BMP_temperature;BMP_pressure;BME280_temperature;BME280_humidity;BME280_pressure;Samples;Min_cycle;Max_cycle;Signal;HPM_P1;HPM_P2
2022/03/16 00:01:56;;;;;;;70.65;6.53;;;;;;;;;;5003660;28;20029;-42
2022/03/16 00:04:23;;;;;;;69.72;7.85;;;;;;;;;;5012597;28;20112;-41
2022/03/16 00:06:50;;;;;;;76.82;7.38;;;;;;;;;;5011524;28;20045;-41
2022/03/16 00:09:17;;;;;;;68.93;7.65;;;;;;;;;;5012331;28;20033;-40
2022/03/16 00:11:44;;;;;;;65.32;7.05;;;;;;;;;;5012769;28;20076;-41
2022/03/16 00:14:11;;;;;;;67.90;6.35;;;;;;;;;;5008391;28;20030;-42
2022/03/16 00:16:38;;;;;;;51.33;5.90;;;;;;;;;;5004054;28;20080;-41
2022/03/16 00:19:05;;;;;;;56.90;5.47;;;;;;;;;;5009599;28;20117;-42
2022/03/16 00:21:34;;;;;;;47.75;5.53;;;;;;;;;;5010983;28;20048;-43
2022/03/16 00:24:02;;;;;;;61.03;6.15;;;;;;;;;;5011418;28;20484;-43
2022/03/16 00:26:29;;;;;;;66.07;7.95;;;;;;;;;;5011259;28;20049;-42
2022/03/16 00:28:56;;;;;;;58.97;6.07;;;;;;;;;;5011654;28;20048;-42
2022/03/16 00:31:23;;;;;;;50.58;6.00;;;;;;;;;;5010718;28;20443;-45
2022/03/16 00:33:50;;;;;;;53.55;5.40;;;;;;;;;;4994144;28;20057;-44
2022/03/16 00:36:17;;;;;;;47.63;5.13;;;;;;;;;;5011040;28;20033;-45
2022/03/16 00:38:44;;;;;;;47.10;5.50;;;;;;;;;;5010689;28;20149;-45
2022/03/16 00:41:12;;;;;;;27.45;4.25;;;;;;;;;;5011343;28;20041;-46
2022/03/16 00:43:39;;;;;;;46.00;3.90;;;;;;;;;;5006879;28;20852;-45
2022/03/16 00:46:06;;;;;;;27.08;3.85;;;;;;;;;;4997498;28;20022;-45
2022/03/16 00:48:34;;;;;;;43.63;4.88;;;;;;;;;;5002238;28;20455;-46
2022/03/16 00:51:01;;;;;;;39.20;4.40;;;;;;;;;;5000933;28;20542;-44
2022/03/16 00:53:28;;;;;;;34.78;5.35;;;;;;;;;;4998099;28;20381;-46
2022/03/16 00:55:55;;;;;;;50.03;5.50;;;;;;;;;;5004715;28;20104;-45
2022/03/16 00:58:24;;;;;;;70.78;6.40;;;;;;;;;;4998598;28;20034;-45
2022/03/16 01:00:51;;;;;;;56.10;6.55;;;;;;;;;;4998071;28;20068;-46
2022/03/16 01:03:18;;;;;;;48.83;6.15;;;;;;;;;;4998846;28;20026;-45
2022/03/16 01:05:46;;;;;;;81.97;9.85;;;;;;;;;;4999131;28;20727;-46
2022/03/16 01:08:13;;;;;;;78.88;9.15;;;;;;;;;;4997985;28;20120;-45
2022/03/16 01:10:41;;;;;;;70.32;8.43;;;;;;;;;;4999628;28;20084;-46
2022/03/16 01:13:08;;;;;;;70.63;8.18;;;;;;;;;;5001841;28;20117;-45
2022/03/16 01:15:35;;;;;;;50.42;7.20;;;;;;;;;;5004080;28;20053;-45
2022/03/16 01:18:02;;;;;;;60.15;7.57;;;;;;;;;;5011866;28;20037;-45
2022/03/16 01:20:29;;;;;;;55.75;7.47;;;;;;;;;;5012051;28;20057;-45
2022/03/16 01:22:56;;;;;;;72.88;9.00;;;;;;;;;;5010814;28;20033;-43
2022/03/16 01:25:23;;;;;;;62.88;8.70;;;;;;;;;;5011711;28;20033;-41
2022/03/16 01:27:50;;;;;;;96.80;10.70;;;;;;;;;;5012119;28;20491;-42
2022/03/16 01:30:17;;;;;;;109.05;11.20;;;;;;;;;;5011467;28;20795;-43
2022/03/16 01:32:44;;;;;;;89.22;11.07;;;;;;;;;;5010379;28;20693;-43
2022/03/16 01:35:11;;;;;;;81.63;10.05;;;;;;;;;;5011182;28;20044;-42
2022/03/16 01:37:39;;;;;;;85.43;10.70;;;;;;;;;;5011036;28;20041;-43
2022/03/16 01:40:06;;;;;;;86.10;11.48;;;;;;;;;;5011988;28;20104;-42
2022/03/16 01:42:34;;;;;;;79.63;9.93;;;;;;;;;;5004681;28;20034;-42
2022/03/16 01:45:01;;;;;;;69.32;9.43;;;;;;;;;;4986724;28;20033;-43
2022/03/16 01:47:29;;;;;;;73.85;9.60;;;;;;;;;;5010786;28;20065;-43
2022/03/16 01:49:56;;;;;;;65.03;9.52;;;;;;;;;;5010917;28;20037;-43
2022/03/16 01:52:24;;;;;;;64.05;9.18;;;;;;;;;;5011168;28;20038;-42
2022/03/16 01:54:51;;;;;;;61.63;9.55;;;;;;;;;;5010514;28;20033;-42
2022/03/16 01:57:18;;;;;;;52.85;8.60;;;;;;;;;;5011577;28;20072;-41
2022/03/16 01:59:46;;;;;;;66.35;8.82;;;;;;;;;;5010452;28;20443;-42
2022/03/16 02:02:13;;;;;;;57.55;7.68;;;;;;;;;;5011350;28;20399;-42
2022/03/16 02:04:41;;;;;;;51.55;6.75;;;;;;;;;;5009938;28;20044;-42
2022/03/16 02:07:08;;;;;;;46.22;6.28;;;;;;;;;;5010794;28;20037;-42
2022/03/16 02:09:35;;;;;;;46.03;6.90;;;;;;;;;;5011135;28;20018;-42
2022/03/16 02:12:02;;;;;;;47.92;6.50;;;;;;;;;;5010967;28;20026;-42
2022/03/16 02:14:29;;;;;;;41.60;6.80;;;;;;;;;;5012459;28;20042;-42
2022/03/16 02:16:58;;;;;;;61.90;6.88;;;;;;;;;;5017338;28;20029;-41
2022/03/16 02:19:25;;;;;;;114.85;10.55;;;;;;;;;;5028569;28;20124;-43
2022/03/16 02:21:57;;;;;;;65.35;6.57;;;;;;;;;;5016284;28;20106;-42
2022/03/16 02:24:25;;;;;;;46.75;5.65;;;;;;;;;;5016227;28;20065;-42
2022/03/16 02:26:52;;;;;;;49.53;5.93;;;;;;;;;;5015249;28;20111;-41
2022/03/16 02:29:19;;;;;;;33.45;4.35;;;;;;;;;;5015641;28;20084;-41
2022/03/16 02:31:46;;;;;;;36.35;4.68;;;;;;;;;;5015673;28;20422;-41
2022/03/16 02:34:13;;;;;;;36.92;4.00;;;;;;;;;;5015881;28;20030;-42
2022/03/16 02:36:40;;;;;;;54.45;6.55;;;;;;;;;;5015501;28;20022;-42
2022/03/16 02:39:07;;;;;;;55.92;5.57;;;;;;;;;;5015665;28;20148;-42
2022/03/16 02:41:34;;;;;;;58.05;6.13;;;;;;;;;;5015712;28;20034;-40
2022/03/16 02:44:02;;;;;;;55.40;5.80;;;;;;;;;;5015631;28;20026;-42
2022/03/16 02:46:29;;;;;;;59.13;6.47;;;;;;;;;;5015566;28;20034;-42
2022/03/16 02:48:56;;;;;;;64.03;6.75;;;;;;;;;;5005181;28;20068;-41
2022/03/16 02:51:23;;;;;;;47.25;5.60;;;;;;;;;;4995698;28;20026;-41
2022/03/16 02:53:52;;;;;;;38.58;5.43;;;;;;;;;;4995757;28;20042;-40
2022/03/16 02:56:19;;;;;;;46.17;5.30;;;;;;;;;;4995940;28;20062;-41
2022/03/16 02:58:47;;;;;;;39.17;5.78;;;;;;;;;;4995882;28;20089;-41
2022/03/16 03:01:14;;;;;;;36.75;5.22;;;;;;;;;;4995808;28;20066;-41
2022/03/16 03:03:41;;;;;;;27.77;4.15;;;;;;;;;;4995987;28;20035;-41
2022/03/16 03:06:08;;;;;;;29.80;4.28;;;;;;;;;;4995899;28;20469;-41
2022/03/16 03:08:35;;;;;;;28.13;3.58;;;;;;;;;;4995935;28;20759;-41
2022/03/16 03:11:02;;;;;;;21.05;3.55;;;;;;;;;;4995759;28;20023;-41
2022/03/16 03:13:29;;;;;;;24.83;3.03;;;;;;;;;;4978332;28;20061;-41
2022/03/16 03:15:56;;;;;;;22.35;3.17;;;;;;;;;;4995839;28;20048;-41
2022/03/16 03:18:22;;;;;;;22.08;2.78;;;;;;;;;;4995629;28;20031;-41
2022/03/16 03:20:49;;;;;;;19.85;2.15;;;;;;;;;;4995641;28;20038;-41
2022/03/16 03:23:16;;;;;;;17.92;2.28;;;;;;;;;;4995682;28;20053;-41
2022/03/16 03:25:43;;;;;;;21.08;2.33;;;;;;;;;;4995659;28;20026;-41
2022/03/16 03:28:10;;;;;;;20.70;2.03;;;;;;;;;;4995523;28;20030;-39
2022/03/16 03:30:37;;;;;;;39.92;4.25;;;;;;;;;;4995412;28;20030;-42
2022/03/16 03:33:04;;;;;;;34.35;4.57;;;;;;;;;;4995264;28;20402;-40
2022/03/16 03:35:31;;;;;;;27.17;3.58;;;;;;;;;;4995444;28;20030;-41
2022/03/16 03:37:58;;;;;;;28.65;3.05;;;;;;;;;;4977786;28;20038;-41
2022/03/16 03:40:25;;;;;;;21.92;3.28;;;;;;;;;;4995282;28;20089;-41
2022/03/16 03:42:52;;;;;;;16.80;2.42;;;;;;;;;;4995354;28;20653;-41
2022/03/16 03:45:19;;;;;;;22.38;2.72;;;;;;;;;;4995142;28;20038;-41
2022/03/16 03:47:46;;;;;;;12.88;2.47;;;;;;;;;;4995243;28;20026;-41
2022/03/16 03:50:13;;;;;;;13.90;2.53;;;;;;;;;;4995078;28;20477;-41
2022/03/16 03:52:40;;;;;;;14.55;2.47;;;;;;;;;;4994974;28;20401;-41
2022/03/16 03:55:07;;;;;;;20.65;2.95;;;;;;;;;;4995101;28;20022;-41
2022/03/16 03:57:34;;;;;;;15.57;2.70;;;;;;;;;;4994995;28;20469;-41
2022/03/16 04:00:01;;;;;;;14.27;2.38;;;;;;;;;;4994904;28;20034;-41
2022/03/16 04:02:28;;;;;;;12.80;2.25;;;;;;;;;;4995142;28;20413;-40
2022/03/16 04:04:55;;;;;;;9.32;2.10;;;;;;;;;;4994872;28;20034;-41
2022/03/16 04:07:22;;;;;;;11.02;2.15;;;;;;;;;;4994798;28;20417;-41
2022/03/16 04:09:50;;;;;;;11.85;2.33;;;;;;;;;;4994733;28;20034;-41
2022/03/16 04:12:18;;;;;;;16.05;2.72;;;;;;;;;;4994674;28;20390;-42
2022/03/16 04:14:45;;;;;;;8.30;2.38;;;;;;;;;;4994738;28;20433;-41
2022/03/16 04:17:12;;;;;;;7.65;2.10;;;;;;;;;;4994566;28;20027;-41
2022/03/16 04:19:39;;;;;;;12.35;2.30;;;;;;;;;;4994540;28;20161;-41
2022/03/16 04:22:06;;;;;;;17.23;2.95;;;;;;;;;;4994555;28;20077;-41
2022/03/16 04:24:33;;;;;;;9.23;2.47;;;;;;;;;;4994481;28;20038;-42
2022/03/16 04:27:00;;;;;;;12.13;2.72;;;;;;;;;;4994614;28;20022;-41
2022/03/16 04:29:26;;;;;;;8.52;2.05;;;;;;;;;;4994513;28;20029;-41
2022/03/16 04:31:53;;;;;;;14.68;2.50;;;;;;;;;;4994217;28;20129;-41
2022/03/16 04:34:20;;;;;;;10.13;2.28;;;;;;;;;;4994516;28;20362;-40
2022/03/16 04:36:47;;;;;;;11.75;2.85;;;;;;;;;;4994201;28;20730;-41
2022/03/16 04:39:14;;;;;;;19.08;2.85;;;;;;;;;;4993656;28;20044;-41
2022/03/16 04:41:41;;;;;;;12.75;2.45;;;;;;;;;;4994204;28;20590;-41
2022/03/16 04:44:08;;;;;;;13.27;2.25;;;;;;;;;;4994144;28;20034;-41
2022/03/16 04:46:35;;;;;;;18.75;2.80;;;;;;;;;;4994107;28;20030;-41
2022/03/16 04:49:02;;;;;;;14.68;2.08;;;;;;;;;;4993962;28;20041;-41
2022/03/16 04:51:29;;;;;;;12.13;2.08;;;;;;;;;;4994019;28;20079;-42
2022/03/16 04:53:56;;;;;;;15.07;1.88;;;;;;;;;;4993923;28;20022;-41
2022/03/16 04:56:23;;;;;;;15.93;2.47;;;;;;;;;;4993984;28;20022;-41
2022/03/16 04:58:50;;;;;;;12.80;1.70;;;;;;;;;;4993791;28;20030;-41
2022/03/16 05:01:17;;;;;;;8.15;2.40;;;;;;;;;;4993906;28;20084;-41
2022/03/16 05:03:45;;;;;;;11.40;1.85;;;;;;;;;;4993814;28;20034;-41
2022/03/16 05:06:12;;;;;;;11.65;1.73;;;;;;;;;;4993700;28;20046;-40
2022/03/16 05:08:39;;;;;;;11.02;1.75;;;;;;;;;;4993668;28;20153;-41
2022/03/16 05:11:06;;;;;;;5.40;1.55;;;;;;;;;;4993653;28;20358;-41
2022/03/16 05:13:33;;;;;;;12.23;1.92;;;;;;;;;;4993658;28;20057;-41
2022/03/16 05:16:00;;;;;;;9.77;1.55;;;;;;;;;;4993593;28;20022;-41
2022/03/16 05:18:27;;;;;;;9.75;1.58;;;;;;;;;;4993470;28;20026;-41
2022/03/16 05:20:54;;;;;;;11.35;1.65;;;;;;;;;;4993433;28;20092;-41
2022/03/16 05:23:24;;;;;;;12.52;1.73;;;;;;;;;;4993701;28;20056;-41
2022/03/16 05:25:51;;;;;;;8.90;1.25;;;;;;;;;;4993396;28;20054;-42
2022/03/16 05:28:18;;;;;;;8.40;1.40;;;;;;;;;;4993509;28;20116;-41
2022/03/16 05:30:45;;;;;;;6.35;1.65;;;;;;;;;;4993302;28;20699;-41
2022/03/16 05:33:12;;;;;;;7.32;1.20;;;;;;;;;;4993095;28;20074;-41
2022/03/16 05:35:40;;;;;;;7.70;1.63;;;;;;;;;;4993288;28;20030;-41
2022/03/16 05:38:08;;;;;;;10.00;1.65;;;;;;;;;;4993088;28;20125;-41
2022/03/16 05:40:35;;;;;;;7.00;1.42;;;;;;;;;;4993079;28;20092;-41
2022/03/16 05:43:02;;;;;;;7.78;1.85;;;;;;;;;;4993118;28;20076;-41
2022/03/16 05:45:29;;;;;;;9.20;1.30;;;;;;;;;;4993145;28;20022;-42
2022/03/16 05:47:56;;;;;;;7.38;1.42;;;;;;;;;;4993105;28;20034;-41
2022/03/16 05:50:28;;;;;;;9.82;1.20;;;;;;;;;;4992146;28;20034;-41
2022/03/16 05:52:58;;;;;;;9.82;1.35;;;;;;;;;;4993007;28;20084;-40
2022/03/16 05:55:25;;;;;;;7.00;1.30;;;;;;;;;;4993041;28;20641;-41
2022/03/16 05:57:52;;;;;;;6.22;0.98;;;;;;;;;;4992939;28;20096;-41
2022/03/16 06:00:20;;;;;;;7.85;1.30;;;;;;;;;;4992930;28;20024;-41
2022/03/16 06:02:48;;;;;;;7.15;1.10;;;;;;;;;;4993016;28;20018;-41
2022/03/16 06:05:16;;;;;;;6.60;1.10;;;;;;;;;;4992943;28;20062;-41
2022/03/16 06:07:43;;;;;;;4.68;1.17;;;;;;;;;;4992975;28;20512;-40
2022/03/16 06:10:12;;;;;;;4.28;0.98;;;;;;;;;;4992725;28;20027;-41
2022/03/16 06:12:57;;;;;;;5.22;1.50;;;;;;;;;;4992922;28;20134;-40
2022/03/16 06:15:25;;;;;;;7.43;1.48;;;;;;;;;;4992892;28;20022;-41
2022/03/16 06:17:53;;;;;;;9.25;1.40;;;;;;;;;;4992722;28;20393;-41
2022/03/16 06:20:20;;;;;;;5.90;1.45;;;;;;;;;;4992730;28;20093;-41
2022/03/16 06:22:47;;;;;;;7.57;1.10;;;;;;;;;;4992811;28;20041;-40
2022/03/16 06:25:14;;;;;;;7.65;1.17;;;;;;;;;;4992768;28;20102;-41
2022/03/16 06:27:41;;;;;;;8.93;1.50;;;;;;;;;;4992795;28;20072;-40
2022/03/16 06:30:08;;;;;;;14.32;1.25;;;;;;;;;;4992632;28;20036;-41
2022/03/16 06:32:35;;;;;;;11.57;1.40;;;;;;;;;;5154003;23;20107;-36
2022/03/16 06:35:05;;;;;;;9.48;1.00;;;;;;;;;;5032113;28;20024;-36
2022/03/16 06:37:32;;;;;;;7.07;1.20;;;;;;;;;;5031962;28;20042;-36
2022/03/16 06:39:59;;;;;;;5.40;0.88;;;;;;;;;;5032059;28;20475;-36
2022/03/16 06:42:26;;;;;;;5.10;1.13;;;;;;;;;;5031969;28;20108;-36
2022/03/16 06:44:53;;;;;;;8.10;1.13;;;;;;;;;;5032004;28;20100;-37
2022/03/16 06:47:20;;;;;;;6.20;1.30;;;;;;;;;;5031999;28;20053;-36
2022/03/16 06:49:47;;;;;;;8.75;1.35;;;;;;;;;;5031951;28;20017;-36
2022/03/16 06:52:14;;;;;;;11.43;1.23;;;;;;;;;;5030421;28;20029;-36
2022/03/16 06:54:41;;;;;;;6.65;1.90;;;;;;;;;;5030555;28;20109;-36
2022/03/16 06:57:08;;;;;;;13.85;1.50;;;;;;;;;;5031775;28;20026;-36
2022/03/16 06:59:35;;;;;;;6.78;1.10;;;;;;;;;;5031799;28;20578;-36
2022/03/16 07:02:02;;;;;;;10.38;1.63;;;;;;;;;;5033594;28;20479;-36
2022/03/16 07:04:30;;;;;;;10.77;1.80;;;;;;;;;;5035466;28;20030;-36
2022/03/16 07:06:57;;;;;;;7.15;1.25;;;;;;;;;;5035360;28;20033;-36
2022/03/16 07:09:24;;;;;;;7.95;1.23;;;;;;;;;;5035342;28;20022;-36
2022/03/16 07:11:51;;;;;;;8.90;1.40;;;;;;;;;;5035217;28;20071;-36
2022/03/16 07:14:33;;;;;;;5.05;1.10;;;;;;;;;;5035554;28;20368;-34
2022/03/16 07:17:01;;;;;;;4.63;1.00;;;;;;;;;;5029228;28;20030;-36
2022/03/16 07:19:29;;;;;;;8.98;1.48;;;;;;;;;;5034641;28;20033;-36
2022/03/16 07:21:58;;;;;;;10.23;1.33;;;;;;;;;;5034564;28;20024;-36
2022/03/16 07:24:26;;;;;;;7.78;1.25;;;;;;;;;;5034570;28;20041;-37
2022/03/16 07:26:54;;;;;;;4.93;0.90;;;;;;;;;;5034514;28;20029;-37
2022/03/16 07:29:21;;;;;;;6.15;1.00;;;;;;;;;;5034446;28;20045;-36
2022/03/16 07:31:49;;;;;;;6.75;1.30;;;;;;;;;;5034140;28;20049;-36
2022/03/16 07:34:16;;;;;;;8.98;1.52;;;;;;;;;;5034473;28;20025;-37
2022/03/16 07:36:43;;;;;;;11.95;1.52;;;;;;;;;;5034267;28;20480;-36
2022/03/16 07:39:11;;;;;;;22.85;1.90;;;;;;;;;;5034286;28;20026;-36
2022/03/16 07:41:38;;;;;;;20.77;2.20;;;;;;;;;;5034311;28;20030;-36
2022/03/16 07:44:05;;;;;;;10.63;1.63;;;;;;;;;;5034275;28;20021;-36
2022/03/16 07:46:32;;;;;;;16.48;1.98;;;;;;;;;;5034270;28;20026;-36
2022/03/16 07:48:59;;;;;;;10.43;1.63;;;;;;;;;;5034069;28;20057;-36
2022/03/16 07:51:26;;;;;;;12.38;1.30;;;;;;;;;;5033940;28;20028;-36
2022/03/16 07:53:53;;;;;;;9.30;1.30;;;;;;;;;;5034063;28;20032;-36
2022/03/16 07:56:20;;;;;;;10.80;1.40;;;;;;;;;;5033994;28;20030;-36
2022/03/16 07:58:48;;;;;;;6.90;1.13;;;;;;;;;;5033837;28;20128;-36
2022/03/16 08:01:15;;;;;;;5.15;1.00;;;;;;;;;;5033740;28;20498;-36
2022/03/16 08:03:42;;;;;;;12.93;1.38;;;;;;;;;;5033836;28;20446;-36
2022/03/16 08:06:09;;;;;;;6.72;1.45;;;;;;;;;;5029960;28;20026;-35
2022/03/16 08:08:39;;;;;;;10.35;1.33;;;;;;;;;;5034091;28;20501;-35
2022/03/16 08:11:07;;;;;;;8.68;1.20;;;;;;;;;;5031583;28;20037;-36
2022/03/16 08:13:34;;;;;;;7.93;1.30;;;;;;;;;;5033193;28;20022;-35
2022/03/16 08:16:01;;;;;;;6.32;1.10;;;;;;;;;;5033262;28;20095;-35
2022/03/16 08:18:28;;;;;;;6.72;1.27;;;;;;;;;;5033882;28;20091;-35
2022/03/16 08:20:56;;;;;;;7.15;1.00;;;;;;;;;;5033866;28;20407;-36
2022/03/16 08:23:23;;;;;;;8.90;1.10;;;;;;;;;;5033931;28;20031;-35
2022/03/16 08:25:50;;;;;;;6.03;1.00;;;;;;;;;;5034010;28;20052;-35
2022/03/16 08:28:17;;;;;;;7.50;1.00;;;;;;;;;;5033962;28;20033;-35
2022/03/16 08:30:45;;;;;;;5.78;0.93;;;;;;;;;;5033906;28;20028;-35
2022/03/16 08:33:11;;;;;;;6.20;1.00;;;;;;;;;;5033552;28;20128;-35
2022/03/16 08:35:39;;;;;;;6.75;1.00;;;;;;;;;;5033690;28;20021;-35
2022/03/16 08:38:06;;;;;;;9.30;1.50;;;;;;;;;;5033618;28;20029;-35
2022/03/16 08:40:33;;;;;;;4.13;0.90;;;;;;;;;;5033719;28;20022;-35
2022/03/16 08:43:00;;;;;;;6.13;1.33;;;;;;;;;;5033524;28;20021;-35
2022/03/16 08:45:27;;;;;;;7.45;0.90;;;;;;;;;;5033558;28;20113;-35
2022/03/16 08:47:54;;;;;;;3.92;0.75;;;;;;;;;;5032206;28;20075;-35
2022/03/16 08:50:21;;;;;;;5.95;1.05;;;;;;;;;;5033533;28;20024;-35
2022/03/16 08:52:49;;;;;;;5.82;1.08;;;;;;;;;;5033417;28;20030;-35
2022/03/16 08:55:16;;;;;;;5.25;0.80;;;;;;;;;;5033457;28;20025;-35
2022/03/16 08:57:43;;;;;;;6.22;1.00;;;;;;;;;;5033264;28;20038;-35
2022/03/16 09:00:18;;;;;;;9.43;1.20;;;;;;;;;;5033306;28;20026;-35
2022/03/16 09:02:46;;;;;;;8.82;1.77;;;;;;;;;;5033121;28;20055;-35
2022/03/16 09:05:15;;;;;;;8.05;0.82;;;;;;;;;;5033262;28;20039;-35
2022/03/16 09:07:42;;;;;;;8.50;1.10;;;;;;;;;;5033036;28;20041;-35
2022/03/16 09:10:09;;;;;;;7.30;1.10;;;;;;;;;;5033084;28;20029;-35
2022/03/16 09:12:37;;;;;;;5.80;0.90;;;;;;;;;;5032995;28;20539;-35
2022/03/16 09:15:04;;;;;;;7.32;1.02;;;;;;;;;;5033092;28;20468;-35
2022/03/16 09:17:33;;;;;;;7.85;1.02;;;;;;;;;;5032837;28;20038;-35
2022/03/16 09:20:00;;;;;;;11.13;1.40;;;;;;;;;;5032987;28;20031;-35
2022/03/16 09:22:27;;;;;;;9.05;1.23;;;;;;;;;;5032859;28;20025;-35
2022/03/16 09:24:56;;;;;;;7.75;1.33;;;;;;;;;;5032723;28;20488;-35
2022/03/16 09:27:26;;;;;;;3.88;0.88;;;;;;;;;;5032812;28;20436;-35
2022/03/16 09:29:55;;;;;;;9.48;1.10;;;;;;;;;;5031823;28;20533;-36
2022/03/16 09:32:26;;;;;;;3.38;0.77;;;;;;;;;;5032298;28;20388;-35
2022/03/16 09:34:53;;;;;;;5.45;1.10;;;;;;;;;;5032559;28;20037;-35
2022/03/16 09:37:20;;;;;;;6.57;1.00;;;;;;;;;;5032491;28;20029;-35
2022/03/16 09:39:47;;;;;;;6.50;1.08;;;;;;;;;;5032490;28;20038;-35
2022/03/16 09:42:14;;;;;;;12.05;1.15;;;;;;;;;;5032478;28;20061;-35
2022/03/16 09:44:41;;;;;;;8.45;1.20;;;;;;;;;;5028807;28;20029;-36
2022/03/16 09:47:09;;;;;;;6.85;1.20;;;;;;;;;;5031704;28;20037;-36
2022/03/16 09:49:38;;;;;;;5.32;1.15;;;;;;;;;;5032138;28;20036;-37
2022/03/16 09:52:07;;;;;;;7.82;1.30;;;;;;;;;;5032015;28;20387;-37
2022/03/16 09:54:34;;;;;;;10.18;1.30;;;;;;;;;;5032188;28;20056;-37
2022/03/16 09:57:01;;;;;;;7.80;1.10;;;;;;;;;;5032383;28;20388;-37
2022/03/16 09:59:28;;;;;;;7.43;1.02;;;;;;;;;;5032123;28;20033;-37
2022/03/16 10:02:07;;;;;;;10.95;1.20;;;;;;;;;;5032164;28;20036;-37
2022/03/16 10:04:36;;;;;;;7.40;1.13;;;;;;;;;;5032251;28;20030;-37
2022/03/16 10:07:04;;;;;;;9.85;1.17;;;;;;;;;;5032149;28;20042;-37
2022/03/16 10:15:13;;;;;;;18.95;1.63;;;;;;;;;;5032380;28;20095;-37
2022/03/16 10:17:45;;;;;;;17.73;1.80;;;;;;;;;;5031965;28;20072;-37
2022/03/16 10:20:12;;;;;;;14.75;1.70;;;;;;;;;;5032094;28;20029;-37
2022/03/16 10:22:41;;;;;;;38.10;3.05;;;;;;;;;;5031946;28;20021;-37
2022/03/16 10:25:08;;;;;;;52.45;4.20;;;;;;;;;;5032015;28;20124;-37
2022/03/16 10:27:39;;;;;;;60.83;5.00;;;;;;;;;;5031998;28;20037;-37
2022/03/16 10:30:08;;;;;;;72.03;6.25;;;;;;;;;;5028640;28;20071;-36
2022/03/16 10:32:36;;;;;;;131.23;8.80;;;;;;;;;;5031497;28;20049;-36
2022/03/16 10:35:06;;;;;;;121.15;10.13;;;;;;;;;;5030420;28;20529;-36
2022/03/16 10:37:36;;;;;;;149.85;12.00;;;;;;;;;;5031576;28;20072;-36
2022/03/16 10:40:17;;;;;;;107.65;7.75;;;;;;;;;;5035470;28;20116;-36
2022/03/16 10:48:19;;;;;;;157.85;11.40;;;;;;;;;;5035309;28;20037;-36
2022/03/16 10:50:47;;;;;;;141.05;11.10;;;;;;;;;;5035058;28;20041;-37
2022/03/16 10:53:16;;;;;;;118.13;9.30;;;;;;;;;;5032054;28;20057;-37
2022/03/16 10:55:44;;;;;;;123.00;9.00;;;;;;;;;;5020114;28;20040;-36
2022/03/16 10:58:12;;;;;;;91.13;8.05;;;;;;;;;;5014987;28;20040;-36
2022/03/16 11:00:40;;;;;;;78.85;8.77;;;;;;;;;;5015080;28;20022;-37
2022/03/16 11:03:07;;;;;;;97.32;8.30;;;;;;;;;;5015494;28;20104;-36
2022/03/16 11:05:38;;;;;;;91.00;7.75;;;;;;;;;;5017147;28;20459;-38
2022/03/16 11:08:07;;;;;;;73.43;6.93;;;;;;;;;;5025397;28;20022;-36
2022/03/16 11:10:45;;;;;;;74.20;7.05;;;;;;;;;;5033842;28;20049;-36
2022/03/16 11:13:32;;;;;;;58.97;5.95;;;;;;;;;;5033920;28;20042;-37
2022/03/16 11:16:00;;;;;;;97.13;8.60;;;;;;;;;;5034837;28;20033;-38
2022/03/16 11:18:27;;;;;;;78.10;6.70;;;;;;;;;;5034793;28;20052;-37
2022/03/16 11:20:56;;;;;;;52.17;5.90;;;;;;;;;;5034666;28;20068;-38
2022/03/16 11:26:36;;;;;;;49.80;5.35;;;;;;;;;;5028869;28;20044;-36
2022/03/16 11:29:10;;;;;;;43.38;4.85;;;;;;;;;;5033753;28;20034;-36
2022/03/16 11:31:38;;;;;;;34.38;3.88;;;;;;;;;;5034098;28;20459;-36
2022/03/16 11:34:10;;;;;;;38.78;4.20;;;;;;;;;;5034321;28;20030;-36
2022/03/16 11:36:40;;;;;;;33.30;4.85;;;;;;;;;;5034281;28;20030;-36
2022/03/16 11:39:16;;;;;;;33.40;4.63;;;;;;;;;;5034176;28;20088;-36
2022/03/16 11:41:57;;;;;;;38.50;4.50;;;;;;;;;;5034113;28;20025;-36
2022/03/16 11:44:26;;;;;;;34.47;4.43;;;;;;;;;;5034154;28;20079;-36
2022/03/16 11:46:54;;;;;;;33.70;4.03;;;;;;;;;;5031714;28;20030;-38
2022/03/16 11:49:29;;;;;;;31.55;4.53;;;;;;;;;;5012995;28;20029;-37
2022/03/16 11:52:00;;;;;;;29.63;4.20;;;;;;;;;;5019014;28;20038;-37
2022/03/16 11:54:52;;;;;;;30.38;4.30;;;;;;;;;;5021366;28;20112;-37
2022/03/16 11:57:39;;;;;;;38.37;3.90;;;;;;;;;;5014112;28;20096;-36
2022/03/16 12:00:17;;;;;;;22.75;3.53;;;;;;;;;;5007784;28;20049;-36
2022/03/16 12:02:53;;;;;;;31.77;3.85;;;;;;;;;;5013964;28;20108;-36
2022/03/16 12:05:22;;;;;;;22.52;3.08;;;;;;;;;;5012723;28;20058;-36
2022/03/16 12:08:08;;;;;;;22.20;3.10;;;;;;;;;;5013939;28;20034;-36
2022/03/16 12:10:46;;;;;;;18.55;3.22;;;;;;;;;;5017975;28;20103;-37
2022/03/16 12:13:16;;;;;;;18.67;2.95;;;;;;;;;;5033781;28;20034;-35
2022/03/16 12:15:43;;;;;;;19.52;2.90;;;;;;;;;;5031237;28;20065;-37
2022/03/16 12:18:14;;;;;;;11.88;2.58;;;;;;;;;;5033526;28;20083;-37
2022/03/16 12:20:45;;;;;;;22.33;2.28;;;;;;;;;;5033517;28;20041;-37
2022/03/16 12:23:32;;;;;;;14.70;2.13;;;;;;;;;;5033587;28;20026;-37
2022/03/16 12:26:00;;;;;;;10.63;2.33;;;;;;;;;;5029570;28;20037;-37
2022/03/16 12:31:16;;;;;;;13.52;1.98;;;;;;;;;;5033232;28;20048;-37
2022/03/16 12:33:45;;;;;;;9.65;1.80;;;;;;;;;;5033302;28;20029;-37
2022/03/16 12:36:14;;;;;;;12.30;1.75;;;;;;;;;;5033205;28;20029;-38
2022/03/16 12:38:46;;;;;;;8.05;1.60;;;;;;;;;;5033121;28;20430;-37
2022/03/16 12:44:00;;;;;;;11.20;1.90;;;;;;;;;;5033400;28;20048;-37
2022/03/16 12:46:35;;;;;;;6.03;1.58;;;;;;;;;;5033073;28;20018;-37
2022/03/16 12:49:05;;;;;;;12.15;1.80;;;;;;;;;;5032932;28;20025;-37
2022/03/16 12:51:35;;;;;;;8.25;1.73;;;;;;;;;;5032913;28;20052;-37
2022/03/16 12:54:02;;;;;;;9.15;1.83;;;;;;;;;;5032844;28;20483;-37
2022/03/16 12:56:29;;;;;;;10.32;2.05;;;;;;;;;;5032875;28;20018;-37
2022/03/16 12:58:57;;;;;;;10.10;1.85;;;;;;;;;;5032335;28;20117;-36
2022/03/16 13:01:25;;;;;;;11.93;2.08;;;;;;;;;;5032662;28;20023;-36
2022/03/16 13:04:00;;;;;;;9.77;1.50;;;;;;;;;;5028586;28;20099;-36
2022/03/16 13:06:33;;;;;;;11.25;1.65;;;;;;;;;;5023571;28;20811;-36
2022/03/16 13:09:03;;;;;;;9.48;1.77;;;;;;;;;;5032708;28;20098;-37
2022/03/16 13:11:32;;;;;;;8.00;1.70;;;;;;;;;;5031429;28;20029;-38
2022/03/16 13:14:06;;;;;;;11.48;1.95;;;;;;;;;;5032934;28;20112;-38
2022/03/16 13:16:42;;;;;;;8.13;1.55;;;;;;;;;;5032806;28;20021;-38
2022/03/16 13:19:31;;;;;;;24.55;2.33;;;;;;;;;;5025299;28;20112;-37
2022/03/16 13:22:04;;;;;;;29.50;2.60;;;;;;;;;;5031707;28;20104;-38
2022/03/16 13:24:32;;;;;;;15.48;1.92;;;;;;;;;;5030202;28;20029;-37
2022/03/16 13:27:01;;;;;;;12.95;1.77;;;;;;;;;;5031104;28;20025;-36
2022/03/16 13:29:29;;;;;;;12.73;1.65;;;;;;;;;;5030488;28;20467;-37
2022/03/16 13:31:56;;;;;;;11.60;1.92;;;;;;;;;;5031243;28;20136;-37
2022/03/16 13:34:26;;;;;;;15.13;1.77;;;;;;;;;;5030412;28;20534;-38
2022/03/16 13:36:53;;;;;;;14.90;2.00;;;;;;;;;;5030343;28;20076;-42
2022/03/16 13:39:22;;;;;;;17.95;1.95;;;;;;;;;;5029897;28;20511;-37
2022/03/16 13:42:13;;;;;;;20.05;1.95;;;;;;;;;;5029613;28;20029;-37
2022/03/16 13:44:41;;;;;;;13.52;1.98;;;;;;;;;;5030781;28;20037;-38
2022/03/16 13:47:08;;;;;;;11.35;1.73;;;;;;;;;;5030632;28;20097;-36
2022/03/16 13:49:40;;;;;;;10.35;2.38;;;;;;;;;;5030692;28;20034;-37
2022/03/16 13:52:09;;;;;;;16.27;2.08;;;;;;;;;;5028274;28;20107;-39
2022/03/16 13:54:36;;;;;;;18.70;2.53;;;;;;;;;;5009091;28;20553;-37
2022/03/16 13:57:22;;;;;;;20.20;2.40;;;;;;;;;;5010310;28;20033;-37
2022/03/16 13:59:55;;;;;;;13.60;2.00;;;;;;;;;;5011123;28;20030;-37
2022/03/16 14:02:23;;;;;;;20.67;2.45;;;;;;;;;;5009825;28;20064;-37
2022/03/16 14:05:16;;;;;;;30.63;2.85;;;;;;;;;;5010251;28;20030;-38
2022/03/16 14:07:50;;;;;;;25.23;2.67;;;;;;;;;;5008271;28;20038;-36
2022/03/16 14:10:22;;;;;;;13.82;2.33;;;;;;;;;;5010829;28;20400;-38
2022/03/16 14:12:49;;;;;;;19.27;2.97;;;;;;;;;;5012489;28;20022;-39
2022/03/16 14:15:18;;;;;;;23.83;1.98;;;;;;;;;;5014277;28;20029;-38
2022/03/16 14:18:00;;;;;;;19.30;2.58;;;;;;;;;;5014014;28;20030;-40
2022/03/16 14:20:27;;;;;;;;;;;;;;;;;;5014454;28;20510;-38
2022/03/16 14:22:54;;;;;;;22.58;1.90;;;;;;;;;;5013200;28;19954;-39
2022/03/16 14:25:27;;;;;;;17.27;2.22;;;;;;;;;;5013874;28;20076;-38
2022/03/16 14:27:56;;;;;;;16.15;2.22;;;;;;;;;;5013934;28;20022;-38
2022/03/16 14:30:24;;;;;;;15.85;2.35;;;;;;;;;;5013595;28;20041;-39
2022/03/16 14:32:52;;;;;;;17.02;2.00;;;;;;;;;;4934832;28;2271075;-41
2022/03/16 14:35:21;;;;;;;19.42;2.10;;;;;;;;;;5015203;28;20033;-39
2022/03/16 14:37:53;;;;;;;18.67;2.17;;;;;;;;;;5014990;28;20053;-39
2022/03/16 14:40:21;;;;;;;16.98;2.25;;;;;;;;;;5014617;28;20502;-39
2022/03/16 14:42:49;;;;;;;13.95;1.98;;;;;;;;;;5017291;28;20037;-38
2022/03/16 14:45:16;;;;;;;21.75;2.55;;;;;;;;;;5032943;28;20048;-36
2022/03/16 14:47:43;;;;;;;20.48;2.10;;;;;;;;;;5033585;28;20472;-39
2022/03/16 14:50:11;;;;;;;22.52;2.50;;;;;;;;;;5034519;28;20021;-38
2022/03/16 14:52:38;;;;;;;21.33;2.72;;;;;;;;;;5034486;28;20029;-38
2022/03/16 14:55:06;;;;;;;23.10;3.50;;;;;;;;;;5033345;28;20064;-38
2022/03/16 14:57:33;;;;;;;38.80;3.10;;;;;;;;;;5034411;28;20106;-40
2022/03/16 14:59:59;;;;;;;34.22;3.70;;;;;;;;;;5034317;28;20037;-39
2022/03/16 15:02:27;;;;;;;26.02;3.55;;;;;;;;;;5023613;28;20042;-40